sensor_id;sensor_type;location;lat;lon;timestamp;temperature;humidity
9466;DHT22;4771;48.726;9.006;2023-05-10T00:02:01;13.60;99.90
9466;DHT22;4771;48.726;9.006;2023-05-10T00:04:27;13.50;99.90
9466;DHT22;4771;48.726;9.006;2023-05-10T00:06:54;13.50;99.90
9466;DHT22;4771;48.726;9.006;2023-05-10T00:09:22;13.60;99.90
9466;DHT22;4771;48.726;9.006;2023-05-10T00:11:49;13.60;99.90
9466;DHT22;4771;48.726;9.006;2023-05-10T00:14:16;13.50;99.90
9466;DHT22;4771;48.726;9.006;2023-05-10T00:16:43;13.50;99.90
9466;DHT22;4771;48.726;9.006;2023-05-10T00:19:10;13.40;99.90
9466;DHT22;4771;48.726;9.006;2023-05-10T00:21:37;13.80;99.90
9466;DHT22;4771;48.726;9.006;2023-05-10T00:24:04;13.60;99.90
9466;DHT22;4771;48.726;9.006;2023-05-10T00:26:33;13.60;99.90
9466;DHT22;4771;48.726;9.006;2023-05-10T00:29:00;13.50;99.90
9466;DHT22;4771;48.726;9.006;2023-05-10T00:31:27;13.50;99.90
9466;DHT22;4771;48.726;9.006;2023-05-10T00:33:55;13.40;99.90
9466;DHT22;4771;48.726;9.006;2023-05-10T00:36:22;13.50;99.90
9466;DHT22;4771;48.726;9.006;2023-05-10T00:38:48;13.50;99.90
9466;DHT22;4771;48.726;9.006;2023-05-10T00:41:15;13.30;99.90
9466;DHT22;4771;48.726;9.006;2023-05-10T00:43:44;13.40;99.90
9466;DHT22;4771;48.726;9.006;2023-05-10T00:46:11;13.40;99.90
9466;DHT22;4771;48.726;9.006;2023-05-10T00:48:38;13.40;99.90
9466;DHT22;4771;48.726;9.006;2023-05-10T00:51:05;13.40;99.90
9466;DHT22;4771;48.726;9.006;2023-05-10T00:53:32;13.50;99.90
9466;DHT22;4771;48.726;9.006;2023-05-10T00:55:59;13.50;99.90
9466;DHT22;4771;48.726;9.006;2023-05-10T00:58:27;13.50;99.90
9466;DHT22;4771;48.726;9.006;2023-05-10T01:00:57;13.60;99.90
9466;DHT22;4771;48.726;9.006;2023-05-10T01:03:25;13.50;99.90
9466;DHT22;4771;48.726;9.006;2023-05-10T01:05:52;13.60;99.90
9466;DHT22;4771;48.726;9.006;2023-05-10T01:08:19;13.70;99.90
9466;DHT22;4771;48.726;9.006;2023-05-10T01:10:46;13.60;99.90
9466;DHT22;4771;48.726;9.006;2023-05-10T01:13:18;13.70;99.90
9466;DHT22;4771;48.726;9.006;2023-05-10T01:15:49;13.60;99.90
9466;DHT22;4771;48.726;9.006;2023-05-10T01:18:20;13.60;99.90
9466;DHT22;4771;48.726;9.006;2023-05-10T01:20:50;13.60;99.90
9466;DHT22;4771;48.726;9.006;2023-05-10T01:23:39;13.60;99.90
9466;DHT22;4771;48.726;9.006;2023-05-10T01:26:24;13.40;99.90
9466;DHT22;4771;48.726;9.006;2023-05-10T01:29:11;13.30;99.90
9466;DHT22;4771;48.726;9.006;2023-05-10T01:34:58;13.00;99.90
9466;DHT22;4771;48.726;9.006;2023-05-10T01:37:33;13.10;99.90
9466;DHT22;4771;48.726;9.006;2023-05-10T01:40:08;12.90;99.90
9466;DHT22;4771;48.726;9.006;2023-05-10T01:42:42;12.80;99.90
9466;DHT22;4771;48.726;9.006;2023-05-10T01:45:20;12.80;99.90
9466;DHT22;4771;48.726;9.006;2023-05-10T01:47:53;12.80;99.90
9466;DHT22;4771;48.726;9.006;2023-05-10T01:50:26;12.90;99.90
9466;DHT22;4771;48.726;9.006;2023-05-10T01:52:56;12.90;99.90
9466;DHT22;4771;48.726;9.006;2023-05-10T01:55:27;13.00;99.90
9466;DHT22;4771;48.726;9.006;2023-05-10T01:58:02;13.00;99.90
9466;DHT22;4771;48.726;9.006;2023-05-10T02:00:29;13.10;99.90
9466;DHT22;4771;48.726;9.006;2023-05-10T02:03:00;13.10;99.90
9466;DHT22;4771;48.726;9.006;2023-05-10T02:05:29;13.20;99.90
9466;DHT22;4771;48.726;9.006;2023-05-10T02:07:58;13.20;99.90
9466;DHT22;4771;48.726;9.006;2023-05-10T02:10:27;13.20;99.90
9466;DHT22;4771;48.726;9.006;2023-05-10T02:12:55;13.20;99.90
9466;DHT22;4771;48.726;9.006;2023-05-10T02:15:25;13.20;99.90
9466;DHT22;4771;48.726;9.006;2023-05-10T02:17:54;13.10;99.90
9466;DHT22;4771;48.726;9.006;2023-05-10T02:20:24;13.10;99.90
9466;DHT22;4771;48.726;9.006;2023-05-10T02:22:53;13.10;99.90
9466;DHT22;4771;48.726;9.006;2023-05-10T02:25:23;13.10;99.90
9466;DHT22;4771;48.726;9.006;2023-05-10T02:27:52;13.20;99.90
9466;DHT22;4771;48.726;9.006;2023-05-10T02:30:21;13.10;99.90
9466;DHT22;4771;48.726;9.006;2023-05-10T02:32:49;13.00;99.90
9466;DHT22;4771;48.726;9.006;2023-05-10T02:35:17;13.00;99.90
9466;DHT22;4771;48.726;9.006;2023-05-10T02:37:47;13.00;99.90
9466;DHT22;4771;48.726;9.006;2023-05-10T02:40:14;12.90;99.90
9466;DHT22;4771;48.726;9.006;2023-05-10T02:42:42;12.90;99.90
9466;DHT22;4771;48.726;9.006;2023-05-10T02:45:13;13.00;99.90
9466;DHT22;4771;48.726;9.006;2023-05-10T02:47:40;12.90;99.90
9466;DHT22;4771;48.726;9.006;2023-05-10T02:50:07;12.90;99.90
9466;DHT22;4771;48.726;9.006;2023-05-10T02:52:42;12.90;99.90
9466;DHT22;4771;48.726;9.006;2023-05-10T02:55:14;12.90;99.90
9466;DHT22;4771;48.726;9.006;2023-05-10T02:57:44;12.90;99.90
9466;DHT22;4771;48.726;9.006;2023-05-10T03:00:13;13.00;99.90
9466;DHT22;4771;48.726;9.006;2023-05-10T03:02:40;13.00;99.90
9466;DHT22;4771;48.726;9.006;2023-05-10T03:05:08;13.00;99.90
9466;DHT22;4771;48.726;9.006;2023-05-10T03:07:35;13.00;99.90
9466;DHT22;4771;48.726;9.006;2023-05-10T03:10:03;13.00;99.90
9466;DHT22;4771;48.726;9.006;2023-05-10T03:12:41;13.00;99.90
9466;DHT22;4771;48.726;9.006;2023-05-10T03:15:17;13.00;99.90
9466;DHT22;4771;48.726;9.006;2023-05-10T03:17:48;13.00;99.90
9466;DHT22;4771;48.726;9.006;2023-05-10T03:20:22;13.10;99.90
9466;DHT22;4771;48.726;9.006;2023-05-10T03:22:52;13.10;99.90
9466;DHT22;4771;48.726;9.006;2023-05-10T03:25:21;13.10;99.90
9466;DHT22;4771;48.726;9.006;2023-05-10T03:27:49;13.10;99.90
9466;DHT22;4771;48.726;9.006;2023-05-10T03:30:17;13.10;99.90
9466;DHT22;4771;48.726;9.006;2023-05-10T03:32:45;13.10;99.90
9466;DHT22;4771;48.726;9.006;2023-05-10T03:35:12;13.10;99.90
9466;DHT22;4771;48.726;9.006;2023-05-10T03:37:39;13.00;99.90
9466;DHT22;4771;48.726;9.006;2023-05-10T03:40:07;13.00;99.90
9466;DHT22;4771;48.726;9.006;2023-05-10T03:42:34;13.00;99.90
9466;DHT22;4771;48.726;9.006;2023-05-10T03:45:03;13.00;99.90
9466;DHT22;4771;48.726;9.006;2023-05-10T03:47:30;13.10;99.90
9466;DHT22;4771;48.726;9.006;2023-05-10T03:49:57;13.10;99.90
9466;DHT22;4771;48.726;9.006;2023-05-10T03:52:24;13.10;99.90
9466;DHT22;4771;48.726;9.006;2023-05-10T03:54:50;13.10;99.90
9466;DHT22;4771;48.726;9.006;2023-05-10T03:57:17;13.10;99.90
9466;DHT22;4771;48.726;9.006;2023-05-10T03:59:44;13.00;99.90
9466;DHT22;4771;48.726;9.006;2023-05-10T04:02:12;13.10;99.90
9466;DHT22;4771;48.726;9.006;2023-05-10T04:04:40;13.00;99.90
9466;DHT22;4771;48.726;9.006;2023-05-10T04:07:07;13.10;99.90
9466;DHT22;4771;48.726;9.006;2023-05-10T04:09:35;13.10;99.90
9466;DHT22;4771;48.726;9.006;2023-05-10T04:12:03;13.10;99.90
9466;DHT22;4771;48.726;9.006;2023-05-10T04:14:30;13.10;99.90
9466;DHT22;4771;48.726;9.006;2023-05-10T04:16:56;13.10;99.90
9466;DHT22;4771;48.726;9.006;2023-05-10T04:19:29;13.10;99.90
9466;DHT22;4771;48.726;9.006;2023-05-10T04:21:56;13.10;99.90
9466;DHT22;4771;48.726;9.006;2023-05-10T04:24:23;13.10;99.90
9466;DHT22;4771;48.726;9.006;2023-05-10T04:26:50;13.10;99.90
9466;DHT22;4771;48.726;9.006;2023-05-10T04:29:17;13.10;99.90
9466;DHT22;4771;48.726;9.006;2023-05-10T04:31:43;13.20;99.90
9466;DHT22;4771;48.726;9.006;2023-05-10T04:34:10;13.10;99.90
9466;DHT22;4771;48.726;9.006;2023-05-10T04:36:38;13.20;99.90
9466;DHT22;4771;48.726;9.006;2023-05-10T04:39:05;13.10;99.90
9466;DHT22;4771;48.726;9.006;2023-05-10T04:41:32;13.10;99.90
9466;DHT22;4771;48.726;9.006;2023-05-10T04:43:59;13.10;99.90
9466;DHT22;4771;48.726;9.006;2023-05-10T04:46:26;13.10;99.90
9466;DHT22;4771;48.726;9.006;2023-05-10T04:48:53;13.00;99.90
9466;DHT22;4771;48.726;9.006;2023-05-10T04:51:20;13.00;99.90
9466;DHT22;4771;48.726;9.006;2023-05-10T04:53:48;13.10;99.90
9466;DHT22;4771;48.726;9.006;2023-05-10T04:56:15;13.10;99.90
9466;DHT22;4771;48.726;9.006;2023-05-10T04:58:42;13.00;99.90
9466;DHT22;4771;48.726;9.006;2023-05-10T05:01:09;13.10;99.90
9466;DHT22;4771;48.726;9.006;2023-05-10T05:03:36;13.10;99.90
9466;DHT22;4771;48.726;9.006;2023-05-10T05:06:04;13.10;99.90
9466;DHT22;4771;48.726;9.006;2023-05-10T05:08:31;13.20;99.90
9466;DHT22;4771;48.726;9.006;2023-05-10T05:10:59;13.10;99.90
9466;DHT22;4771;48.726;9.006;2023-05-10T05:13:26;13.10;99.90
9466;DHT22;4771;48.726;9.006;2023-05-10T05:15:53;13.20;99.90
9466;DHT22;4771;48.726;9.006;2023-05-10T05:18:20;13.10;99.90
9466;DHT22;4771;48.726;9.006;2023-05-10T05:20:47;13.10;99.90
9466;DHT22;4771;48.726;9.006;2023-05-10T05:23:13;13.20;99.90
9466;DHT22;4771;48.726;9.006;2023-05-10T05:25:40;13.20;99.90
9466;DHT22;4771;48.726;9.006;2023-05-10T05:28:09;13.20;99.90
9466;DHT22;4771;48.726;9.006;2023-05-10T05:30:35;13.20;99.90
9466;DHT22;4771;48.726;9.006;2023-05-10T05:33:03;13.30;99.90
9466;DHT22;4771;48.726;9.006;2023-05-10T05:35:29;13.30;99.90
9466;DHT22;4771;48.726;9.006;2023-05-10T05:37:56;13.30;99.90
9466;DHT22;4771;48.726;9.006;2023-05-10T05:40:23;13.30;99.90
9466;DHT22;4771;48.726;9.006;2023-05-10T05:42:50;13.40;99.90
9466;DHT22;4771;48.726;9.006;2023-05-10T05:45:18;13.30;99.90
9466;DHT22;4771;48.726;9.006;2023-05-10T05:47:45;13.40;99.90
9466;DHT22;4771;48.726;9.006;2023-05-10T05:50:12;13.40;99.90
9466;DHT22;4771;48.726;9.006;2023-05-10T05:52:39;13.40;99.90
9466;DHT22;4771;48.726;9.006;2023-05-10T05:55:07;13.40;99.90
9466;DHT22;4771;48.726;9.006;2023-05-10T05:57:33;13.40;99.90
9466;DHT22;4771;48.726;9.006;2023-05-10T06:00:00;13.30;99.90
9466;DHT22;4771;48.726;9.006;2023-05-10T06:02:29;13.30;99.90
9466;DHT22;4771;48.726;9.006;2023-05-10T06:04:56;13.30;99.90
9466;DHT22;4771;48.726;9.006;2023-05-10T06:07:23;13.40;99.90
9466;DHT22;4771;48.726;9.006;2023-05-10T06:09:50;13.40;99.90
9466;DHT22;4771;48.726;9.006;2023-05-10T06:12:17;13.50;99.90
9466;DHT22;4771;48.726;9.006;2023-05-10T06:14:44;13.50;99.90
9466;DHT22;4771;48.726;9.006;2023-05-10T06:17:11;13.50;99.90
9466;DHT22;4771;48.726;9.006;2023-05-10T06:19:39;13.60;99.90
9466;DHT22;4771;48.726;9.006;2023-05-10T06:22:06;13.60;99.90
9466;DHT22;4771;48.726;9.006;2023-05-10T06:24:33;13.60;99.90
9466;DHT22;4771;48.726;9.006;2023-05-10T06:27:00;13.60;99.90
9466;DHT22;4771;48.726;9.006;2023-05-10T06:29:27;13.60;99.90
9466;DHT22;4771;48.726;9.006;2023-05-10T06:31:54;13.60;99.90
9466;DHT22;4771;48.726;9.006;2023-05-10T06:34:21;13.50;99.90
9466;DHT22;4771;48.726;9.006;2023-05-10T06:36:49;13.50;99.90
9466;DHT22;4771;48.726;9.006;2023-05-10T06:39:17;13.40;99.90
9466;DHT22;4771;48.726;9.006;2023-05-10T06:41:44;13.40;99.90
9466;DHT22;4771;48.726;9.006;2023-05-10T06:44:11;13.40;99.90
9466;DHT22;4771;48.726;9.006;2023-05-10T06:46:38;13.50;99.90
9466;DHT22;4771;48.726;9.006;2023-05-10T06:49:05;13.50;99.90
9466;DHT22;4771;48.726;9.006;2023-05-10T06:51:32;13.50;99.90
9466;DHT22;4771;48.726;9.006;2023-05-10T06:54:00;13.60;99.90
9466;DHT22;4771;48.726;9.006;2023-05-10T06:56:27;13.60;99.90
9466;DHT22;4771;48.726;9.006;2023-05-10T06:58:54;13.60;99.90
9466;DHT22;4771;48.726;9.006;2023-05-10T07:01:21;13.70;99.90
9466;DHT22;4771;48.726;9.006;2023-05-10T07:03:48;13.80;99.90
9466;DHT22;4771;48.726;9.006;2023-05-10T07:06:14;13.80;99.90
9466;DHT22;4771;48.726;9.006;2023-05-10T07:08:41;13.80;99.90
9466;DHT22;4771;48.726;9.006;2023-05-10T07:11:10;14.00;99.90
9466;DHT22;4771;48.726;9.006;2023-05-10T07:13:36;13.80;99.90
9466;DHT22;4771;48.726;9.006;2023-05-10T07:16:06;13.90;99.90
9466;DHT22;4771;48.726;9.006;2023-05-10T07:18:33;13.90;99.90
9466;DHT22;4771;48.726;9.006;2023-05-10T07:21:00;14.10;99.90
9466;DHT22;4771;48.726;9.006;2023-05-10T07:23:27;13.90;99.90
9466;DHT22;4771;48.726;9.006;2023-05-10T07:25:55;14.00;99.90
9466;DHT22;4771;48.726;9.006;2023-05-10T07:28:24;13.50;99.90
9466;DHT22;4771;48.726;9.006;2023-05-10T07:30:51;13.90;99.90
9466;DHT22;4771;48.726;9.006;2023-05-10T07:33:18;13.90;99.90
9466;DHT22;4771;48.726;9.006;2023-05-10T07:35:45;14.00;99.90
9466;DHT22;4771;48.726;9.006;2023-05-10T07:38:12;14.00;99.90
9466;DHT22;4771;48.726;9.006;2023-05-10T07:40:39;14.00;99.90
9466;DHT22;4771;48.726;9.006;2023-05-10T07:43:06;14.00;99.90
9466;DHT22;4771;48.726;9.006;2023-05-10T07:45:34;14.00;99.90
9466;DHT22;4771;48.726;9.006;2023-05-10T07:48:01;14.10;99.90
9466;DHT22;4771;48.726;9.006;2023-05-10T07:50:28;14.10;99.90
9466;DHT22;4771;48.726;9.006;2023-05-10T07:52:55;14.10;99.90
9466;DHT22;4771;48.726;9.006;2023-05-10T07:55:22;14.10;99.90
9466;DHT22;4771;48.726;9.006;2023-05-10T07:57:49;14.10;99.90
9466;DHT22;4771;48.726;9.006;2023-05-10T08:00:18;14.10;99.90
9466;DHT22;4771;48.726;9.006;2023-05-10T08:02:47;14.20;99.90
9466;DHT22;4771;48.726;9.006;2023-05-10T08:05:14;14.00;99.90
9466;DHT22;4771;48.726;9.006;2023-05-10T08:07:40;13.90;99.90
9466;DHT22;4771;48.726;9.006;2023-05-10T08:10:08;14.00;99.90
9466;DHT22;4771;48.726;9.006;2023-05-10T08:12:36;13.90;99.90
9466;DHT22;4771;48.726;9.006;2023-05-10T08:15:04;13.90;99.90
9466;DHT22;4771;48.726;9.006;2023-05-10T08:17:30;13.90;99.90
9466;DHT22;4771;48.726;9.006;2023-05-10T08:19:59;14.00;99.90
9466;DHT22;4771;48.726;9.006;2023-05-10T08:22:26;14.10;99.90
9466;DHT22;4771;48.726;9.006;2023-05-10T08:24:53;14.20;99.90
9466;DHT22;4771;48.726;9.006;2023-05-10T08:27:19;14.20;99.90
9466;DHT22;4771;48.726;9.006;2023-05-10T08:29:46;14.20;99.90
9466;DHT22;4771;48.726;9.006;2023-05-10T08:32:13;14.30;99.90
9466;DHT22;4771;48.726;9.006;2023-05-10T08:34:40;14.30;99.90
9466;DHT22;4771;48.726;9.006;2023-05-10T08:37:08;14.00;99.90
9466;DHT22;4771;48.726;9.006;2023-05-10T08:39:38;13.90;99.90
9466;DHT22;4771;48.726;9.006;2023-05-10T08:42:05;14.00;99.90
9466;DHT22;4771;48.726;9.006;2023-05-10T08:44:35;14.00;99.90
9466;DHT22;4771;48.726;9.006;2023-05-10T08:47:04;13.90;99.90
9466;DHT22;4771;48.726;9.006;2023-05-10T08:49:32;14.00;99.90
9466;DHT22;4771;48.726;9.006;2023-05-10T08:52:02;14.00;99.90
9466;DHT22;4771;48.726;9.006;2023-05-10T08:54:33;13.70;99.90
9466;DHT22;4771;48.726;9.006;2023-05-10T08:57:00;13.80;99.90
9466;DHT22;4771;48.726;9.006;2023-05-10T08:59:27;14.00;99.90
9466;DHT22;4771;48.726;9.006;2023-05-10T09:01:56;14.00;99.90
9466;DHT22;4771;48.726;9.006;2023-05-10T09:04:24;14.10;99.90
9466;DHT22;4771;48.726;9.006;2023-05-10T09:06:51;14.00;99.90
9466;DHT22;4771;48.726;9.006;2023-05-10T09:09:18;14.00;99.90
9466;DHT22;4771;48.726;9.006;2023-05-10T09:11:47;14.00;99.90
9466;DHT22;4771;48.726;9.006;2023-05-10T09:14:15;13.90;99.90
9466;DHT22;4771;48.726;9.006;2023-05-10T09:16:42;13.90;99.90
9466;DHT22;4771;48.726;9.006;2023-05-10T09:19:10;13.90;99.90
9466;DHT22;4771;48.726;9.006;2023-05-10T09:21:37;14.00;99.90
9466;DHT22;4771;48.726;9.006;2023-05-10T09:24:05;14.00;99.90
9466;DHT22;4771;48.726;9.006;2023-05-10T09:26:32;14.00;99.90
9466;DHT22;4771;48.726;9.006;2023-05-10T09:29:00;14.00;99.90
9466;DHT22;4771;48.726;9.006;2023-05-10T09:31:44;14.10;99.90
9466;DHT22;4771;48.726;9.006;2023-05-10T09:34:15;14.20;99.90
9466;DHT22;4771;48.726;9.006;2023-05-10T09:36:54;14.10;99.90
9466;DHT22;4771;48.726;9.006;2023-05-10T09:39:30;14.10;99.90
9466;DHT22;4771;48.726;9.006;2023-05-10T09:41:58;14.20;99.90
9466;DHT22;4771;48.726;9.006;2023-05-10T09:44:27;14.30;99.90
9466;DHT22;4771;48.726;9.006;2023-05-10T09:46:54;14.30;99.90
9466;DHT22;4771;48.726;9.006;2023-05-10T09:49:21;14.40;99.90
9466;DHT22;4771;48.726;9.006;2023-05-10T09:52:00;14.60;99.90
9466;DHT22;4771;48.726;9.006;2023-05-10T09:54:26;14.60;99.90
9466;DHT22;4771;48.726;9.006;2023-05-10T09:56:53;14.70;99.90
9466;DHT22;4771;48.726;9.006;2023-05-10T09:59:20;14.70;99.90
9466;DHT22;4771;48.726;9.006;2023-05-10T10:01:51;14.60;99.90
9466;DHT22;4771;48.726;9.006;2023-05-10T10:04:20;14.60;99.90
9466;DHT22;4771;48.726;9.006;2023-05-10T10:06:47;14.70;99.90
9466;DHT22;4771;48.726;9.006;2023-05-10T10:09:25;14.80;99.90
9466;DHT22;4771;48.726;9.006;2023-05-10T10:11:52;14.80;99.90
9466;DHT22;4771;48.726;9.006;2023-05-10T10:14:19;14.70;99.90
9466;DHT22;4771;48.726;9.006;2023-05-10T10:16:46;14.50;99.90
9466;DHT22;4771;48.726;9.006;2023-05-10T10:19:15;14.60;99.90
9466;DHT22;4771;48.726;9.006;2023-05-10T10:21:41;14.80;99.90
9466;DHT22;4771;48.726;9.006;2023-05-10T10:24:08;14.80;99.90
9466;DHT22;4771;48.726;9.006;2023-05-10T10:26:36;14.90;99.90
9466;DHT22;4771;48.726;9.006;2023-05-10T10:29:14;14.90;99.90
9466;DHT22;4771;48.726;9.006;2023-05-10T10:31:47;14.90;99.90
9466;DHT22;4771;48.726;9.006;2023-05-10T10:34:25;15.10;99.90
9466;DHT22;4771;48.726;9.006;2023-05-10T10:36:52;15.20;99.90
9466;DHT22;4771;48.726;9.006;2023-05-10T10:39:20;15.30;99.90
9466;DHT22;4771;48.726;9.006;2023-05-10T10:41:52;15.10;99.90
9466;DHT22;4771;48.726;9.006;2023-05-10T10:44:33;14.90;99.90
9466;DHT22;4771;48.726;9.006;2023-05-10T10:47:24;14.70;99.90
9466;DHT22;4771;48.726;9.006;2023-05-10T10:50:05;14.40;99.90
9466;DHT22;4771;48.726;9.006;2023-05-10T10:52:33;14.30;99.90
9466;DHT22;4771;48.726;9.006;2023-05-10T10:55:02;14.20;99.90
9466;DHT22;4771;48.726;9.006;2023-05-10T10:57:43;14.20;99.90
9466;DHT22;4771;48.726;9.006;2023-05-10T11:00:25;14.10;99.90
9466;DHT22;4771;48.726;9.006;2023-05-10T11:02:53;14.00;99.90
9466;DHT22;4771;48.726;9.006;2023-05-10T11:05:37;13.90;99.90
9466;DHT22;4771;48.726;9.006;2023-05-10T11:08:19;13.80;99.90
9466;DHT22;4771;48.726;9.006;2023-05-10T11:11:02;13.70;99.90
9466;DHT22;4771;48.726;9.006;2023-05-10T11:13:33;13.80;99.90
9466;DHT22;4771;48.726;9.006;2023-05-10T11:16:17;13.80;99.90
9466;DHT22;4771;48.726;9.006;2023-05-10T11:18:56;13.70;99.90
9466;DHT22;4771;48.726;9.006;2023-05-10T11:21:25;13.80;99.90
9466;DHT22;4771;48.726;9.006;2023-05-10T11:23:53;13.80;99.90
9466;DHT22;4771;48.726;9.006;2023-05-10T11:26:22;13.90;99.90
9466;DHT22;4771;48.726;9.006;2023-05-10T11:28:53;13.80;99.90
9466;DHT22;4771;48.726;9.006;2023-05-10T11:31:22;13.80;99.90
9466;DHT22;4771;48.726;9.006;2023-05-10T11:33:53;13.80;99.90
9466;DHT22;4771;48.726;9.006;2023-05-10T11:36:23;14.00;99.90
9466;DHT22;4771;48.726;9.006;2023-05-10T11:38:52;14.10;99.90
9466;DHT22;4771;48.726;9.006;2023-05-10T11:41:19;14.10;99.90
9466;DHT22;4771;48.726;9.006;2023-05-10T11:43:49;14.10;99.90
9466;DHT22;4771;48.726;9.006;2023-05-10T11:46:18;14.20;99.90
9466;DHT22;4771;48.726;9.006;2023-05-10T11:48:47;14.30;99.90
9466;DHT22;4771;48.726;9.006;2023-05-10T11:51:15;14.40;99.90
9466;DHT22;4771;48.726;9.006;2023-05-10T11:53:42;14.50;99.90
9466;DHT22;4771;48.726;9.006;2023-05-10T11:56:11;14.50;99.90
9466;DHT22;4771;48.726;9.006;2023-05-10T11:58:39;14.50;99.90
9466;DHT22;4771;48.726;9.006;2023-05-10T12:01:07;14.50;99.90
9466;DHT22;4771;48.726;9.006;2023-05-10T12:03:34;14.60;99.90
9466;DHT22;4771;48.726;9.006;2023-05-10T12:06:02;14.80;99.90
9466;DHT22;4771;48.726;9.006;2023-05-10T12:08:30;14.60;99.90
9466;DHT22;4771;48.726;9.006;2023-05-10T12:11:05;14.60;99.90
9466;DHT22;4771;48.726;9.006;2023-05-10T12:13:37;14.50;99.90
9466;DHT22;4771;48.726;9.006;2023-05-10T12:16:13;14.50;99.90
9466;DHT22;4771;48.726;9.006;2023-05-10T12:18:40;14.40;99.90
9466;DHT22;4771;48.726;9.006;2023-05-10T12:21:09;14.50;99.90
9466;DHT22;4771;48.726;9.006;2023-05-10T12:23:37;14.50;99.90
9466;DHT22;4771;48.726;9.006;2023-05-10T12:26:04;14.50;99.90
9466;DHT22;4771;48.726;9.006;2023-05-10T12:28:33;14.60;99.90
9466;DHT22;4771;48.726;9.006;2023-05-10T12:31:01;14.50;99.90
9466;DHT22;4771;48.726;9.006;2023-05-10T12:33:35;14.60;99.90
9466;DHT22;4771;48.726;9.006;2023-05-10T12:36:05;14.50;99.90
9466;DHT22;4771;48.726;9.006;2023-05-10T12:38:34;14.30;99.90
9466;DHT22;4771;48.726;9.006;2023-05-10T12:41:04;14.30;99.90
9466;DHT22;4771;48.726;9.006;2023-05-10T12:43:34;14.30;99.90
9466;DHT22;4771;48.726;9.006;2023-05-10T12:46:05;14.30;99.90
9466;DHT22;4771;48.726;9.006;2023-05-10T12:48:32;14.40;99.90
9466;DHT22;4771;48.726;9.006;2023-05-10T12:51:00;14.50;99.90
9466;DHT22;4771;48.726;9.006;2023-05-10T12:53:27;14.60;99.90
9466;DHT22;4771;48.726;9.006;2023-05-10T12:55:54;14.70;99.90
9466;DHT22;4771;48.726;9.006;2023-05-10T12:58:21;14.60;99.90
9466;DHT22;4771;48.726;9.006;2023-05-10T13:00:50;14.60;99.90
9466;DHT22;4771;48.726;9.006;2023-05-10T13:03:18;14.60;99.90
9466;DHT22;4771;48.726;9.006;2023-05-10T13:05:45;14.70;99.90
9466;DHT22;4771;48.726;9.006;2023-05-10T13:08:12;14.70;99.90
9466;DHT22;4771;48.726;9.006;2023-05-10T13:10:39;14.80;99.90
9466;DHT22;4771;48.726;9.006;2023-05-10T13:13:06;14.90;99.90
9466;DHT22;4771;48.726;9.006;2023-05-10T13:15:33;14.90;99.90
9466;DHT22;4771;48.726;9.006;2023-05-10T13:18:02;15.00;99.90
9466;DHT22;4771;48.726;9.006;2023-05-10T13:20:29;15.00;99.90
9466;DHT22;4771;48.726;9.006;2023-05-10T13:22:56;15.10;99.90
9466;DHT22;4771;48.726;9.006;2023-05-10T13:25:23;14.90;99.90
9466;DHT22;4771;48.726;9.006;2023-05-10T13:27:49;14.90;99.90
9466;DHT22;4771;48.726;9.006;2023-05-10T13:30:16;14.90;99.90
9466;DHT22;4771;48.726;9.006;2023-05-10T13:32:43;14.80;99.90
9466;DHT22;4771;48.726;9.006;2023-05-10T13:35:12;14.90;99.90
9466;DHT22;4771;48.726;9.006;2023-05-10T13:37:39;14.90;99.90
9466;DHT22;4771;48.726;9.006;2023-05-10T13:40:08;15.00;99.90
9466;DHT22;4771;48.726;9.006;2023-05-10T13:42:35;15.00;99.90
9466;DHT22;4771;48.726;9.006;2023-05-10T13:45:02;15.00;99.90
9466;DHT22;4771;48.726;9.006;2023-05-10T13:47:29;15.10;99.90
9466;DHT22;4771;48.726;9.006;2023-05-10T13:49:56;15.20;99.90
9466;DHT22;4771;48.726;9.006;2023-05-10T13:52:25;15.30;99.90
9466;DHT22;4771;48.726;9.006;2023-05-10T13:54:52;15.30;99.90
9466;DHT22;4771;48.726;9.006;2023-05-10T13:57:20;15.30;99.90
9466;DHT22;4771;48.726;9.006;2023-05-10T13:59:47;15.20;99.90
9466;DHT22;4771;48.726;9.006;2023-05-10T14:02:14;15.30;99.90
9466;DHT22;4771;48.726;9.006;2023-05-10T14:04:41;15.30;99.90
9466;DHT22;4771;48.726;9.006;2023-05-10T14:07:08;15.30;99.90
9466;DHT22;4771;48.726;9.006;2023-05-10T14:09:36;15.20;99.90
9466;DHT22;4771;48.726;9.006;2023-05-10T14:12:03;15.30;99.90
9466;DHT22;4771;48.726;9.006;2023-05-10T14:14:30;15.40;99.90
9466;DHT22;4771;48.726;9.006;2023-05-10T14:16:57;15.40;99.90
9466;DHT22;4771;48.726;9.006;2023-05-10T14:19:24;15.30;99.90
9466;DHT22;4771;48.726;9.006;2023-05-10T14:21:52;15.30;99.90
9466;DHT22;4771;48.726;9.006;2023-05-10T14:24:19;15.20;99.90
9466;DHT22;4771;48.726;9.006;2023-05-10T14:26:47;15.20;99.90
9466;DHT22;4771;48.726;9.006;2023-05-10T14:29:14;15.30;99.90
9466;DHT22;4771;48.726;9.006;2023-05-10T14:31:41;15.30;99.90
9466;DHT22;4771;48.726;9.006;2023-05-10T14:34:08;15.30;99.90
9466;DHT22;4771;48.726;9.006;2023-05-10T14:36:34;15.30;99.90
9466;DHT22;4771;48.726;9.006;2023-05-10T14:39:01;15.40;99.90
9466;DHT22;4771;48.726;9.006;2023-05-10T14:41:29;15.50;99.90
9466;DHT22;4771;48.726;9.006;2023-05-10T14:43:57;15.50;99.90
9466;DHT22;4771;48.726;9.006;2023-05-10T14:46:24;15.60;99.90
9466;DHT22;4771;48.726;9.006;2023-05-10T14:48:51;15.60;99.90
9466;DHT22;4771;48.726;9.006;2023-05-10T14:51:17;15.60;99.90
9466;DHT22;4771;48.726;9.006;2023-05-10T14:53:47;15.70;99.90
9466;DHT22;4771;48.726;9.006;2023-05-10T14:56:14;15.60;99.90
9466;DHT22;4771;48.726;9.006;2023-05-10T14:58:41;15.70;99.90
9466;DHT22;4771;48.726;9.006;2023-05-10T15:01:09;15.60;99.90
9466;DHT22;4771;48.726;9.006;2023-05-10T15:03:36;15.60;99.90
9466;DHT22;4771;48.726;9.006;2023-05-10T15:06:03;15.40;99.90
9466;DHT22;4771;48.726;9.006;2023-05-10T15:08:30;15.50;99.90
9466;DHT22;4771;48.726;9.006;2023-05-10T15:10:57;15.40;99.90
9466;DHT22;4771;48.726;9.006;2023-05-10T15:13:24;15.50;99.90
9466;DHT22;4771;48.726;9.006;2023-05-10T15:15:51;15.50;99.90
9466;DHT22;4771;48.726;9.006;2023-05-10T15:18:20;15.50;99.90
9466;DHT22;4771;48.726;9.006;2023-05-10T15:20:46;15.50;99.90
9466;DHT22;4771;48.726;9.006;2023-05-10T15:23:13;15.60;99.90
9466;DHT22;4771;48.726;9.006;2023-05-10T15:25:40;15.60;99.90
9466;DHT22;4771;48.726;9.006;2023-05-10T15:28:07;15.70;99.90
9466;DHT22;4771;48.726;9.006;2023-05-10T15:30:34;15.70;99.90
9466;DHT22;4771;48.726;9.006;2023-05-10T15:33:01;15.60;99.90
9466;DHT22;4771;48.726;9.006;2023-05-10T15:35:29;15.60;99.90
9466;DHT22;4771;48.726;9.006;2023-05-10T15:37:59;15.60;99.90
9466;DHT22;4771;48.726;9.006;2023-05-10T15:40:26;15.50;99.90
9466;DHT22;4771;48.726;9.006;2023-05-10T15:42:52;15.60;99.90
9466;DHT22;4771;48.726;9.006;2023-05-10T15:45:20;15.60;99.90
9466;DHT22;4771;48.726;9.006;2023-05-10T15:47:47;15.60;99.90
9466;DHT22;4771;48.726;9.006;2023-05-10T15:50:14;15.70;99.90
9466;DHT22;4771;48.726;9.006;2023-05-10T15:52:42;15.70;99.90
9466;DHT22;4771;48.726;9.006;2023-05-10T15:55:09;15.70;99.90
9466;DHT22;4771;48.726;9.006;2023-05-10T15:57:38;15.70;99.90
9466;DHT22;4771;48.726;9.006;2023-05-10T16:00:07;15.80;99.90
9466;DHT22;4771;48.726;9.006;2023-05-10T16:02:34;15.80;99.90
9466;DHT22;4771;48.726;9.006;2023-05-10T16:05:02;15.80;99.90
9466;DHT22;4771;48.726;9.006;2023-05-10T16:07:29;15.80;99.90
9466;DHT22;4771;48.726;9.006;2023-05-10T16:09:57;15.70;99.90
9466;DHT22;4771;48.726;9.006;2023-05-10T16:12:26;15.70;99.90
9466;DHT22;4771;48.726;9.006;2023-05-10T16:14:53;15.60;99.90